sensor_id;sensor_type;location;lat;lon;timestamp;temperature;humidity
15262;DHT22;7733;51.554;13.590;2024-02-16T00:02:19;9.70;99.90
15262;DHT22;7733;51.554;13.590;2024-02-16T00:04:45;9.70;99.90
15262;DHT22;7733;51.554;13.590;2024-02-16T00:07:11;9.70;99.90
15262;DHT22;7733;51.554;13.590;2024-02-16T00:09:37;9.70;99.90
15262;DHT22;7733;51.554;13.590;2024-02-16T00:12:02;9.70;99.90
15262;DHT22;7733;51.554;13.590;2024-02-16T00:14:28;9.70;99.90
15262;DHT22;7733;51.554;13.590;2024-02-16T00:16:54;9.70;99.90
15262;DHT22;7733;51.554;13.590;2024-02-16T00:19:20;9.70;99.90
15262;DHT22;7733;51.554;13.590;2024-02-16T00:21:45;9.70;99.90
15262;DHT22;7733;51.554;13.590;2024-02-16T00:24:11;9.60;99.90
15262;DHT22;7733;51.554;13.590;2024-02-16T00:26:37;9.60;99.90
15262;DHT22;7733;51.554;13.590;2024-02-16T00:29:05;9.60;99.90
15262;DHT22;7733;51.554;13.590;2024-02-16T00:31:31;9.60;99.90
15262;DHT22;7733;51.554;13.590;2024-02-16T00:33:56;9.60;99.90
15262;DHT22;7733;51.554;13.590;2024-02-16T00:36:22;9.50;99.90
15262;DHT22;7733;51.554;13.590;2024-02-16T00:38:48;9.50;99.90
15262;DHT22;7733;51.554;13.590;2024-02-16T00:41:21;9.50;99.90
15262;DHT22;7733;51.554;13.590;2024-02-16T00:43:48;9.40;99.90
15262;DHT22;7733;51.554;13.590;2024-02-16T00:46:14;9.40;99.90
15262;DHT22;7733;51.554;13.590;2024-02-16T00:48:40;9.30;99.90
15262;DHT22;7733;51.554;13.590;2024-02-16T00:51:06;9.30;99.90
15262;DHT22;7733;51.554;13.590;2024-02-16T00:53:32;9.30;99.90
15262;DHT22;7733;51.554;13.590;2024-02-16T00:55:58;9.30;99.90
15262;DHT22;7733;51.554;13.590;2024-02-16T00:58:23;9.30;99.90
15262;DHT22;7733;51.554;13.590;2024-02-16T01:00:49;9.30;99.90
15262;DHT22;7733;51.554;13.590;2024-02-16T01:03:15;9.30;99.90
15262;DHT22;7733;51.554;13.590;2024-02-16T01:05:40;9.20;99.90
15262;DHT22;7733;51.554;13.590;2024-02-16T01:08:06;9.20;99.90
15262;DHT22;7733;51.554;13.590;2024-02-16T01:10:32;9.20;99.90
15262;DHT22;7733;51.554;13.590;2024-02-16T01:12:58;9.20;99.90
15262;DHT22;7733;51.554;13.590;2024-02-16T01:15:24;9.10;99.90
15262;DHT22;7733;51.554;13.590;2024-02-16T01:17:50;9.20;99.90
15262;DHT22;7733;51.554;13.590;2024-02-16T01:20:16;9.10;99.90
15262;DHT22;7733;51.554;13.590;2024-02-16T01:22:41;9.00;99.90
15262;DHT22;7733;51.554;13.590;2024-02-16T01:25:08;9.00;99.90
15262;DHT22;7733;51.554;13.590;2024-02-16T01:27:35;9.00;99.90
15262;DHT22;7733;51.554;13.590;2024-02-16T01:30:01;9.00;99.90
15262;DHT22;7733;51.554;13.590;2024-02-16T01:32:28;9.00;99.90
15262;DHT22;7733;51.554;13.590;2024-02-16T01:34:54;8.90;99.90
15262;DHT22;7733;51.554;13.590;2024-02-16T01:37:19;8.90;99.90
15262;DHT22;7733;51.554;13.590;2024-02-16T01:39:45;8.90;99.90
15262;DHT22;7733;51.554;13.590;2024-02-16T01:42:12;8.90;99.90
15262;DHT22;7733;51.554;13.590;2024-02-16T01:44:38;8.80;99.90
15262;DHT22;7733;51.554;13.590;2024-02-16T01:47:04;8.90;99.90
15262;DHT22;7733;51.554;13.590;2024-02-16T01:49:30;8.80;99.90
15262;DHT22;7733;51.554;13.590;2024-02-16T01:51:56;8.80;99.90
15262;DHT22;7733;51.554;13.590;2024-02-16T01:54:23;8.70;99.90
15262;DHT22;7733;51.554;13.590;2024-02-16T01:56:49;8.70;99.90
15262;DHT22;7733;51.554;13.590;2024-02-16T01:59:16;8.70;99.90
15262;DHT22;7733;51.554;13.590;2024-02-16T02:01:42;8.70;99.90
15262;DHT22;7733;51.554;13.590;2024-02-16T02:04:08;8.60;99.90
15262;DHT22;7733;51.554;13.590;2024-02-16T02:06:34;8.60;99.90
15262;DHT22;7733;51.554;13.590;2024-02-16T02:09:00;8.60;99.90
15262;DHT22;7733;51.554;13.590;2024-02-16T02:11:26;8.60;99.90
15262;DHT22;7733;51.554;13.590;2024-02-16T02:13:52;8.60;99.90
15262;DHT22;7733;51.554;13.590;2024-02-16T02:16:19;8.50;99.90
15262;DHT22;7733;51.554;13.590;2024-02-16T02:18:46;8.50;99.90
15262;DHT22;7733;51.554;13.590;2024-02-16T02:21:12;8.50;99.90
15262;DHT22;7733;51.554;13.590;2024-02-16T02:23:40;8.60;99.90
15262;DHT22;7733;51.554;13.590;2024-02-16T02:26:06;8.60;99.90
15262;DHT22;7733;51.554;13.590;2024-02-16T02:28:32;8.50;99.90
15262;DHT22;7733;51.554;13.590;2024-02-16T02:30:59;8.40;99.90
15262;DHT22;7733;51.554;13.590;2024-02-16T02:33:25;8.50;99.90
15262;DHT22;7733;51.554;13.590;2024-02-16T02:35:51;8.40;99.90
15262;DHT22;7733;51.554;13.590;2024-02-16T02:38:17;8.40;99.90
15262;DHT22;7733;51.554;13.590;2024-02-16T02:40:42;8.40;99.90
15262;DHT22;7733;51.554;13.590;2024-02-16T02:43:08;8.50;99.90
15262;DHT22;7733;51.554;13.590;2024-02-16T02:45:34;8.50;99.90
15262;DHT22;7733;51.554;13.590;2024-02-16T02:48:00;8.50;99.90
15262;DHT22;7733;51.554;13.590;2024-02-16T02:50:26;8.60;99.90
15262;DHT22;7733;51.554;13.590;2024-02-16T02:52:52;8.60;99.90
15262;DHT22;7733;51.554;13.590;2024-02-16T02:55:17;8.50;99.90
15262;DHT22;7733;51.554;13.590;2024-02-16T02:57:43;8.60;99.90
15262;DHT22;7733;51.554;13.590;2024-02-16T03:00:09;8.60;99.90
15262;DHT22;7733;51.554;13.590;2024-02-16T03:02:42;8.60;99.90
15262;DHT22;7733;51.554;13.590;2024-02-16T03:05:09;8.60;99.90
15262;DHT22;7733;51.554;13.590;2024-02-16T03:07:35;8.50;99.90
15262;DHT22;7733;51.554;13.590;2024-02-16T03:10:02;8.50;99.90
15262;DHT22;7733;51.554;13.590;2024-02-16T03:12:28;8.50;99.90
15262;DHT22;7733;51.554;13.590;2024-02-16T03:14:55;8.50;99.90
15262;DHT22;7733;51.554;13.590;2024-02-16T03:17:21;8.50;99.90
15262;DHT22;7733;51.554;13.590;2024-02-16T03:19:47;8.60;99.90
15262;DHT22;7733;51.554;13.590;2024-02-16T03:22:12;8.50;99.90
15262;DHT22;7733;51.554;13.590;2024-02-16T03:24:38;8.50;99.90
15262;DHT22;7733;51.554;13.590;2024-02-16T03:27:04;8.50;99.90
15262;DHT22;7733;51.554;13.590;2024-02-16T03:29:30;8.50;99.90
15262;DHT22;7733;51.554;13.590;2024-02-16T03:31:56;8.50;99.90
15262;DHT22;7733;51.554;13.590;2024-02-16T03:34:22;8.40;99.90
15262;DHT22;7733;51.554;13.590;2024-02-16T03:36:47;8.40;99.90
15262;DHT22;7733;51.554;13.590;2024-02-16T03:39:13;8.40;99.90
15262;DHT22;7733;51.554;13.590;2024-02-16T03:41:45;8.40;99.90
15262;DHT22;7733;51.554;13.590;2024-02-16T03:44:14;8.40;99.90
15262;DHT22;7733;51.554;13.590;2024-02-16T03:46:41;8.40;99.90
15262;DHT22;7733;51.554;13.590;2024-02-16T03:49:08;8.40;99.90
15262;DHT22;7733;51.554;13.590;2024-02-16T03:51:35;8.40;99.90
15262;DHT22;7733;51.554;13.590;2024-02-16T03:54:02;8.30;99.90
15262;DHT22;7733;51.554;13.590;2024-02-16T03:56:29;8.40;99.90
15262;DHT22;7733;51.554;13.590;2024-02-16T03:58:55;8.40;99.90
15262;DHT22;7733;51.554;13.590;2024-02-16T04:01:21;8.40;99.90
15262;DHT22;7733;51.554;13.590;2024-02-16T04:03:47;8.40;99.90
15262;DHT22;7733;51.554;13.590;2024-02-16T04:06:13;8.30;99.90
15262;DHT22;7733;51.554;13.590;2024-02-16T04:08:38;8.40;99.90
15262;DHT22;7733;51.554;13.590;2024-02-16T04:11:05;8.40;99.90
15262;DHT22;7733;51.554;13.590;2024-02-16T04:13:31;8.40;99.90
15262;DHT22;7733;51.554;13.590;2024-02-16T04:15:58;8.40;99.90
15262;DHT22;7733;51.554;13.590;2024-02-16T04:18:23;8.40;99.90
15262;DHT22;7733;51.554;13.590;2024-02-16T04:20:49;8.40;99.90
15262;DHT22;7733;51.554;13.590;2024-02-16T04:23:15;8.40;99.90
15262;DHT22;7733;51.554;13.590;2024-02-16T04:25:41;8.40;99.90
15262;DHT22;7733;51.554;13.590;2024-02-16T04:28:06;8.40;99.90
15262;DHT22;7733;51.554;13.590;2024-02-16T04:30:32;8.40;99.90
15262;DHT22;7733;51.554;13.590;2024-02-16T04:32:58;8.50;99.90
15262;DHT22;7733;51.554;13.590;2024-02-16T04:35:24;8.50;99.90
15262;DHT22;7733;51.554;13.590;2024-02-16T04:37:49;8.30;99.90
15262;DHT22;7733;51.554;13.590;2024-02-16T04:40:15;8.20;99.90
15262;DHT22;7733;51.554;13.590;2024-02-16T04:42:41;8.30;99.90
15262;DHT22;7733;51.554;13.590;2024-02-16T04:45:07;8.40;99.90
15262;DHT22;7733;51.554;13.590;2024-02-16T04:47:36;8.40;99.90
15262;DHT22;7733;51.554;13.590;2024-02-16T04:50:02;8.30;99.90
15262;DHT22;7733;51.554;13.590;2024-02-16T04:52:28;8.00;99.90
15262;DHT22;7733;51.554;13.590;2024-02-16T04:54:54;8.10;99.90
15262;DHT22;7733;51.554;13.590;2024-02-16T04:57:20;8.20;99.90
15262;DHT22;7733;51.554;13.590;2024-02-16T04:59:46;8.30;99.90
15262;DHT22;7733;51.554;13.590;2024-02-16T05:02:11;8.30;99.90
15262;DHT22;7733;51.554;13.590;2024-02-16T05:04:37;8.40;99.90
15262;DHT22;7733;51.554;13.590;2024-02-16T05:07:04;8.50;99.90
15262;DHT22;7733;51.554;13.590;2024-02-16T05:09:32;8.50;99.90
15262;DHT22;7733;51.554;13.590;2024-02-16T05:11:58;8.40;99.90
15262;DHT22;7733;51.554;13.590;2024-02-16T05:14:23;8.40;99.90
15262;DHT22;7733;51.554;13.590;2024-02-16T05:16:49;8.50;99.90
15262;DHT22;7733;51.554;13.590;2024-02-16T05:19:16;8.50;99.90
15262;DHT22;7733;51.554;13.590;2024-02-16T05:21:42;8.50;99.90
15262;DHT22;7733;51.554;13.590;2024-02-16T05:24:08;8.50;99.90
15262;DHT22;7733;51.554;13.590;2024-02-16T05:26:34;8.40;99.90
15262;DHT22;7733;51.554;13.590;2024-02-16T05:28:59;8.30;99.90
15262;DHT22;7733;51.554;13.590;2024-02-16T05:31:25;8.30;99.90
15262;DHT22;7733;51.554;13.590;2024-02-16T05:33:51;8.40;99.90
15262;DHT22;7733;51.554;13.590;2024-02-16T05:36:18;8.50;99.90
15262;DHT22;7733;51.554;13.590;2024-02-16T05:38:46;8.60;99.90
15262;DHT22;7733;51.554;13.590;2024-02-16T05:41:12;8.60;99.90
15262;DHT22;7733;51.554;13.590;2024-02-16T05:43:38;8.70;99.90
15262;DHT22;7733;51.554;13.590;2024-02-16T05:46:04;8.70;99.90
15262;DHT22;7733;51.554;13.590;2024-02-16T05:48:33;8.70;99.90
15262;DHT22;7733;51.554;13.590;2024-02-16T05:51:03;8.80;99.90
15262;DHT22;7733;51.554;13.590;2024-02-16T05:53:31;8.80;99.90
15262;DHT22;7733;51.554;13.590;2024-02-16T05:55:57;8.90;99.90
15262;DHT22;7733;51.554;13.590;2024-02-16T05:58:23;8.90;99.90
15262;DHT22;7733;51.554;13.590;2024-02-16T06:00:49;9.00;99.90
15262;DHT22;7733;51.554;13.590;2024-02-16T06:03:16;9.00;99.90
15262;DHT22;7733;51.554;13.590;2024-02-16T06:05:42;8.90;99.90
15262;DHT22;7733;51.554;13.590;2024-02-16T06:08:10;8.90;99.90
15262;DHT22;7733;51.554;13.590;2024-02-16T06:10:36;8.90;99.90
15262;DHT22;7733;51.554;13.590;2024-02-16T06:13:02;8.90;99.90
15262;DHT22;7733;51.554;13.590;2024-02-16T06:15:28;8.80;99.90
15262;DHT22;7733;51.554;13.590;2024-02-16T06:17:53;8.90;99.90
15262;DHT22;7733;51.554;13.590;2024-02-16T06:20:19;8.80;99.90
15262;DHT22;7733;51.554;13.590;2024-02-16T06:22:45;8.90;99.90
15262;DHT22;7733;51.554;13.590;2024-02-16T06:25:11;8.90;99.90
15262;DHT22;7733;51.554;13.590;2024-02-16T06:27:37;8.90;99.90
15262;DHT22;7733;51.554;13.590;2024-02-16T06:30:03;8.90;99.90
15262;DHT22;7733;51.554;13.590;2024-02-16T06:32:33;8.80;99.90
15262;DHT22;7733;51.554;13.590;2024-02-16T06:34:59;8.90;99.90
15262;DHT22;7733;51.554;13.590;2024-02-16T06:37:24;8.90;99.90
15262;DHT22;7733;51.554;13.590;2024-02-16T06:39:50;8.90;99.90
15262;DHT22;7733;51.554;13.590;2024-02-16T06:42:16;9.00;99.90
15262;DHT22;7733;51.554;13.590;2024-02-16T06:44:42;9.00;99.90
15262;DHT22;7733;51.554;13.590;2024-02-16T06:47:07;9.00;99.90
15262;DHT22;7733;51.554;13.590;2024-02-16T06:49:33;9.00;99.90
15262;DHT22;7733;51.554;13.590;2024-02-16T06:51:59;9.10;99.90
15262;DHT22;7733;51.554;13.590;2024-02-16T06:54:25;9.10;99.90
15262;DHT22;7733;51.554;13.590;2024-02-16T06:56:51;9.20;99.90
15262;DHT22;7733;51.554;13.590;2024-02-16T06:59:17;9.20;99.90
15262;DHT22;7733;51.554;13.590;2024-02-16T07:01:43;9.30;99.90
15262;DHT22;7733;51.554;13.590;2024-02-16T07:04:09;9.40;99.90
15262;DHT22;7733;51.554;13.590;2024-02-16T07:06:35;9.40;99.90
15262;DHT22;7733;51.554;13.590;2024-02-16T07:09:01;9.40;99.90
15262;DHT22;7733;51.554;13.590;2024-02-16T07:11:28;9.40;99.90
15262;DHT22;7733;51.554;13.590;2024-02-16T07:13:54;9.40;99.90
15262;DHT22;7733;51.554;13.590;2024-02-16T07:16:20;9.50;99.90
15262;DHT22;7733;51.554;13.590;2024-02-16T07:18:46;9.60;99.90
15262;DHT22;7733;51.554;13.590;2024-02-16T07:21:11;9.60;99.90
15262;DHT22;7733;51.554;13.590;2024-02-16T07:23:38;9.70;99.90
15262;DHT22;7733;51.554;13.590;2024-02-16T07:26:04;9.80;99.90
15262;DHT22;7733;51.554;13.590;2024-02-16T07:28:30;9.90;99.90
15262;DHT22;7733;51.554;13.590;2024-02-16T07:30:57;9.90;99.90
15262;DHT22;7733;51.554;13.590;2024-02-16T07:33:23;10.00;99.90
15262;DHT22;7733;51.554;13.590;2024-02-16T07:35:50;10.00;99.90
15262;DHT22;7733;51.554;13.590;2024-02-16T07:38:17;10.00;99.90
15262;DHT22;7733;51.554;13.590;2024-02-16T07:40:43;10.00;99.90
15262;DHT22;7733;51.554;13.590;2024-02-16T07:43:11;10.00;99.90
15262;DHT22;7733;51.554;13.590;2024-02-16T07:45:36;10.00;99.90
15262;DHT22;7733;51.554;13.590;2024-02-16T07:48:02;10.00;99.90
15262;DHT22;7733;51.554;13.590;2024-02-16T07:50:30;10.10;99.90
15262;DHT22;7733;51.554;13.590;2024-02-16T07:52:56;10.10;99.90
15262;DHT22;7733;51.554;13.590;2024-02-16T07:55:22;10.10;99.90
15262;DHT22;7733;51.554;13.590;2024-02-16T07:57:50;10.10;99.90
15262;DHT22;7733;51.554;13.590;2024-02-16T08:00:17;10.10;99.90
15262;DHT22;7733;51.554;13.590;2024-02-16T08:02:43;10.20;99.90
15262;DHT22;7733;51.554;13.590;2024-02-16T08:05:10;10.10;99.90
15262;DHT22;7733;51.554;13.590;2024-02-16T08:07:38;10.10;99.90
15262;DHT22;7733;51.554;13.590;2024-02-16T08:10:08;10.20;99.90
15262;DHT22;7733;51.554;13.590;2024-02-16T08:12:34;10.20;99.90
15262;DHT22;7733;51.554;13.590;2024-02-16T08:15:02;10.30;99.90
15262;DHT22;7733;51.554;13.590;2024-02-16T08:17:29;10.20;99.90
15262;DHT22;7733;51.554;13.590;2024-02-16T08:19:56;10.30;99.90
15262;DHT22;7733;51.554;13.590;2024-02-16T08:22:22;10.30;99.90
15262;DHT22;7733;51.554;13.590;2024-02-16T08:24:48;10.30;99.90
15262;DHT22;7733;51.554;13.590;2024-02-16T08:27:15;10.30;99.90
15262;DHT22;7733;51.554;13.590;2024-02-16T08:29:44;10.30;99.90
15262;DHT22;7733;51.554;13.590;2024-02-16T08:32:10;10.40;99.90
15262;DHT22;7733;51.554;13.590;2024-02-16T08:34:37;10.50;99.90
15262;DHT22;7733;51.554;13.590;2024-02-16T08:37:04;10.60;99.90
15262;DHT22;7733;51.554;13.590;2024-02-16T08:39:33;10.60;99.90
15262;DHT22;7733;51.554;13.590;2024-02-16T08:42:00;10.60;99.90
15262;DHT22;7733;51.554;13.590;2024-02-16T08:44:26;10.60;99.90
15262;DHT22;7733;51.554;13.590;2024-02-16T08:46:52;10.50;99.90
15262;DHT22;7733;51.554;13.590;2024-02-16T08:49:19;10.60;99.90
15262;DHT22;7733;51.554;13.590;2024-02-16T08:51:45;10.70;99.90
15262;DHT22;7733;51.554;13.590;2024-02-16T08:54:10;10.90;99.90
15262;DHT22;7733;51.554;13.590;2024-02-16T08:56:36;11.10;99.90
15262;DHT22;7733;51.554;13.590;2024-02-16T08:59:05;11.30;99.90
15262;DHT22;7733;51.554;13.590;2024-02-16T09:01:32;11.40;99.90
15262;DHT22;7733;51.554;13.590;2024-02-16T09:04:00;11.40;99.90
15262;DHT22;7733;51.554;13.590;2024-02-16T09:06:27;11.30;99.90
15262;DHT22;7733;51.554;13.590;2024-02-16T09:08:53;11.40;99.90
15262;DHT22;7733;51.554;13.590;2024-02-16T09:11:20;11.50;99.90
15262;DHT22;7733;51.554;13.590;2024-02-16T09:13:45;11.50;99.90
15262;DHT22;7733;51.554;13.590;2024-02-16T09:16:11;11.50;99.90
15262;DHT22;7733;51.554;13.590;2024-02-16T09:18:37;11.50;99.90
15262;DHT22;7733;51.554;13.590;2024-02-16T09:21:03;11.50;99.90
15262;DHT22;7733;51.554;13.590;2024-02-16T09:23:30;11.60;99.90
15262;DHT22;7733;51.554;13.590;2024-02-16T09:25:57;11.70;99.90
15262;DHT22;7733;51.554;13.590;2024-02-16T09:28:22;11.70;99.90
15262;DHT22;7733;51.554;13.590;2024-02-16T09:30:48;11.60;99.90
15262;DHT22;7733;51.554;13.590;2024-02-16T09:33:14;11.60;99.90
15262;DHT22;7733;51.554;13.590;2024-02-16T09:35:40;11.70;99.90
15262;DHT22;7733;51.554;13.590;2024-02-16T09:38:06;11.70;99.90
15262;DHT22;7733;51.554;13.590;2024-02-16T09:40:32;11.80;99.90
15262;DHT22;7733;51.554;13.590;2024-02-16T09:42:58;11.80;99.90
15262;DHT22;7733;51.554;13.590;2024-02-16T09:45:25;11.90;99.90
15262;DHT22;7733;51.554;13.590;2024-02-16T09:47:54;11.90;99.90
15262;DHT22;7733;51.554;13.590;2024-02-16T09:50:21;12.00;99.90
15262;DHT22;7733;51.554;13.590;2024-02-16T09:52:48;12.00;99.90
15262;DHT22;7733;51.554;13.590;2024-02-16T09:55:16;12.10;99.90
15262;DHT22;7733;51.554;13.590;2024-02-16T09:57:43;12.10;99.90
15262;DHT22;7733;51.554;13.590;2024-02-16T10:00:10;12.20;99.90
15262;DHT22;7733;51.554;13.590;2024-02-16T10:02:44;12.30;99.90
15262;DHT22;7733;51.554;13.590;2024-02-16T10:05:20;12.30;99.90
15262;DHT22;7733;51.554;13.590;2024-02-16T10:07:47;12.30;99.90
15262;DHT22;7733;51.554;13.590;2024-02-16T10:10:24;12.30;99.90
15262;DHT22;7733;51.554;13.590;2024-02-16T10:13:11;12.30;99.90
15262;DHT22;7733;51.554;13.590;2024-02-16T10:15:37;12.30;99.90
15262;DHT22;7733;51.554;13.590;2024-02-16T10:18:06;12.40;99.90
15262;DHT22;7733;51.554;13.590;2024-02-16T10:20:34;12.40;99.90
15262;DHT22;7733;51.554;13.590;2024-02-16T10:25:32;12.50;99.90
15262;DHT22;7733;51.554;13.590;2024-02-16T10:28:05;12.60;99.90
15262;DHT22;7733;51.554;13.590;2024-02-16T10:30:37;12.50;99.90
15262;DHT22;7733;51.554;13.590;2024-02-16T10:33:07;12.70;99.90
15262;DHT22;7733;51.554;13.590;2024-02-16T10:35:36;12.70;99.90
15262;DHT22;7733;51.554;13.590;2024-02-16T10:38:04;12.70;99.90
15262;DHT22;7733;51.554;13.590;2024-02-16T10:40:38;12.80;99.90
15262;DHT22;7733;51.554;13.590;2024-02-16T10:43:05;12.90;99.90
15262;DHT22;7733;51.554;13.590;2024-02-16T10:45:36;12.90;99.90
15262;DHT22;7733;51.554;13.590;2024-02-16T10:48:03;13.00;99.90
15262;DHT22;7733;51.554;13.590;2024-02-16T10:50:32;13.10;99.90
15262;DHT22;7733;51.554;13.590;2024-02-16T10:53:10;13.10;99.90
15262;DHT22;7733;51.554;13.590;2024-02-16T10:55:43;13.30;99.90
15262;DHT22;7733;51.554;13.590;2024-02-16T10:58:11;13.60;99.90
15262;DHT22;7733;51.554;13.590;2024-02-16T11:00:54;13.90;99.90
15262;DHT22;7733;51.554;13.590;2024-02-16T11:03:25;14.20;99.90
15262;DHT22;7733;51.554;13.590;2024-02-16T11:05:53;14.40;99.90
15262;DHT22;7733;51.554;13.590;2024-02-16T11:08:21;14.60;99.90
15262;DHT22;7733;51.554;13.590;2024-02-16T11:11:00;14.50;99.90
15262;DHT22;7733;51.554;13.590;2024-02-16T11:13:32;14.50;99.90
15262;DHT22;7733;51.554;13.590;2024-02-16T11:16:01;14.60;99.90
15262;DHT22;7733;51.554;13.590;2024-02-16T11:18:32;14.90;99.90
15262;DHT22;7733;51.554;13.590;2024-02-16T11:21:03;14.90;99.90
15262;DHT22;7733;51.554;13.590;2024-02-16T11:23:34;14.90;99.90
15262;DHT22;7733;51.554;13.590;2024-02-16T11:26:05;15.10;99.90
15262;DHT22;7733;51.554;13.590;2024-02-16T11:28:36;15.10;99.90
15262;DHT22;7733;51.554;13.590;2024-02-16T11:31:04;15.00;99.90
15262;DHT22;7733;51.554;13.590;2024-02-16T11:33:30;15.00;99.90
15262;DHT22;7733;51.554;13.590;2024-02-16T11:35:58;15.10;99.90
15262;DHT22;7733;51.554;13.590;2024-02-16T11:38:31;15.30;99.90
15262;DHT22;7733;51.554;13.590;2024-02-16T11:41:01;15.10;99.90
15262;DHT22;7733;51.554;13.590;2024-02-16T11:43:30;15.30;99.90
15262;DHT22;7733;51.554;13.590;2024-02-16T11:45:58;15.20;99.90
15262;DHT22;7733;51.554;13.590;2024-02-16T11:48:25;15.40;99.90
15262;DHT22;7733;51.554;13.590;2024-02-16T11:51:01;15.50;99.90
15262;DHT22;7733;51.554;13.590;2024-02-16T11:53:28;15.70;99.90
15262;DHT22;7733;51.554;13.590;2024-02-16T11:55:57;15.80;99.90
15262;DHT22;7733;51.554;13.590;2024-02-16T11:58:24;15.80;99.90
15262;DHT22;7733;51.554;13.590;2024-02-16T12:00:51;15.70;99.90
15262;DHT22;7733;51.554;13.590;2024-02-16T12:03:24;15.80;99.90
15262;DHT22;7733;51.554;13.590;2024-02-16T12:05:52;15.90;99.90
15262;DHT22;7733;51.554;13.590;2024-02-16T12:08:21;15.90;99.90
15262;DHT22;7733;51.554;13.590;2024-02-16T12:10:48;16.00;99.90
15262;DHT22;7733;51.554;13.590;2024-02-16T12:13:19;16.00;99.90
15262;DHT22;7733;51.554;13.590;2024-02-16T12:15:49;16.00;99.90
15262;DHT22;7733;51.554;13.590;2024-02-16T12:18:26;16.10;99.90
15262;DHT22;7733;51.554;13.590;2024-02-16T12:21:06;16.20;99.90
15262;DHT22;7733;51.554;13.590;2024-02-16T12:23:32;16.20;99.90
15262;DHT22;7733;51.554;13.590;2024-02-16T12:26:03;15.90;99.90
15262;DHT22;7733;51.554;13.590;2024-02-16T12:28:30;15.90;99.90
15262;DHT22;7733;51.554;13.590;2024-02-16T12:31:01;15.90;99.90
15262;DHT22;7733;51.554;13.590;2024-02-16T12:33:27;15.80;99.90
15262;DHT22;7733;51.554;13.590;2024-02-16T12:35:53;15.70;99.90
15262;DHT22;7733;51.554;13.590;2024-02-16T12:38:19;15.60;99.90
15262;DHT22;7733;51.554;13.590;2024-02-16T12:40:51;15.50;99.90
15262;DHT22;7733;51.554;13.590;2024-02-16T12:43:17;15.40;99.90
15262;DHT22;7733;51.554;13.590;2024-02-16T12:45:45;15.40;99.90
15262;DHT22;7733;51.554;13.590;2024-02-16T12:48:10;15.40;99.90
15262;DHT22;7733;51.554;13.590;2024-02-16T12:50:38;15.20;99.90
15262;DHT22;7733;51.554;13.590;2024-02-16T12:53:05;15.20;99.90
15262;DHT22;7733;51.554;13.590;2024-02-16T12:55:31;15.10;99.90
15262;DHT22;7733;51.554;13.590;2024-02-16T12:57:57;15.00;99.90
15262;DHT22;7733;51.554;13.590;2024-02-16T13:00:22;15.00;99.90
15262;DHT22;7733;51.554;13.590;2024-02-16T13:02:48;15.00;99.90
15262;DHT22;7733;51.554;13.590;2024-02-16T13:05:14;14.90;99.90
15262;DHT22;7733;51.554;13.590;2024-02-16T13:07:40;14.80;99.90
15262;DHT22;7733;51.554;13.590;2024-02-16T13:10:10;14.90;99.90
15262;DHT22;7733;51.554;13.590;2024-02-16T13:12:37;14.90;99.90
15262;DHT22;7733;51.554;13.590;2024-02-16T13:15:07;14.80;99.90
15262;DHT22;7733;51.554;13.590;2024-02-16T13:17:33;14.90;99.90
15262;DHT22;7733;51.554;13.590;2024-02-16T13:19:59;14.80;99.90
15262;DHT22;7733;51.554;13.590;2024-02-16T13:22:36;14.70;99.90
15262;DHT22;7733;51.554;13.590;2024-02-16T13:25:05;14.70;99.90
15262;DHT22;7733;51.554;13.590;2024-02-16T13:27:34;14.70;99.90
15262;DHT22;7733;51.554;13.590;2024-02-16T13:30:00;14.60;99.90
15262;DHT22;7733;51.554;13.590;2024-02-16T13:32:27;14.60;99.90
15262;DHT22;7733;51.554;13.590;2024-02-16T13:34:53;14.50;99.90
15262;DHT22;7733;51.554;13.590;2024-02-16T13:37:19;14.40;99.90
15262;DHT22;7733;51.554;13.590;2024-02-16T13:39:44;14.40;99.90
15262;DHT22;7733;51.554;13.590;2024-02-16T13:42:12;14.40;99.90
15262;DHT22;7733;51.554;13.590;2024-02-16T13:44:38;14.30;99.90
15262;DHT22;7733;51.554;13.590;2024-02-16T13:47:04;14.20;99.90
15262;DHT22;7733;51.554;13.590;2024-02-16T13:49:30;14.20;99.90
15262;DHT22;7733;51.554;13.590;2024-02-16T13:51:56;14.20;99.90
15262;DHT22;7733;51.554;13.590;2024-02-16T13:54:25;14.10;99.90
15262;DHT22;7733;51.554;13.590;2024-02-16T13:56:50;14.20;99.90
15262;DHT22;7733;51.554;13.590;2024-02-16T13:59:16;14.20;99.90
15262;DHT22;7733;51.554;13.590;2024-02-16T14:01:42;14.20;99.90
15262;DHT22;7733;51.554;13.590;2024-02-16T14:04:08;14.20;99.90
15262;DHT22;7733;51.554;13.590;2024-02-16T14:06:34;14.20;99.90
15262;DHT22;7733;51.554;13.590;2024-02-16T14:09:04;14.20;99.90
15262;DHT22;7733;51.554;13.590;2024-02-16T14:11:35;14.30;99.90
15262;DHT22;7733;51.554;13.590;2024-02-16T14:14:01;14.30;99.90
15262;DHT22;7733;51.554;13.590;2024-02-16T14:16:27;14.30;99.90
15262;DHT22;7733;51.554;13.590;2024-02-16T14:18:53;14.30;99.90
15262;DHT22;7733;51.554;13.590;2024-02-16T14:21:19;14.20;99.90
15262;DHT22;7733;51.554;13.590;2024-02-16T14:23:44;14.20;99.90
15262;DHT22;7733;51.554;13.590;2024-02-16T14:26:10;14.20;99.90
15262;DHT22;7733;51.554;13.590;2024-02-16T14:28:37;14.20;99.90
15262;DHT22;7733;51.554;13.590;2024-02-16T14:31:02;14.20;99.90
15262;DHT22;7733;51.554;13.590;2024-02-16T14:33:28;14.30;99.90
15262;DHT22;7733;51.554;13.590;2024-02-16T14:35:54;14.30;99.90
15262;DHT22;7733;51.554;13.590;2024-02-16T14:38:20;14.30;99.90
15262;DHT22;7733;51.554;13.590;2024-02-16T14:40:45;14.30;99.90
15262;DHT22;7733;51.554;13.590;2024-02-16T14:43:11;14.30;99.90
15262;DHT22;7733;51.554;13.590;2024-02-16T14:45:37;14.30;99.90
15262;DHT22;7733;51.554;13.590;2024-02-16T14:48:04;14.30;99.90
15262;DHT22;7733;51.554;13.590;2024-02-16T14:50:30;14.30;99.90
15262;DHT22;7733;51.554;13.590;2024-02-16T14:52:56;14.40;99.90
15262;DHT22;7733;51.554;13.590;2024-02-16T14:55:22;14.40;99.90
15262;DHT22;7733;51.554;13.590;2024-02-16T14:57:47;14.40;99.90
15262;DHT22;7733;51.554;13.590;2024-02-16T15:00:15;14.40;99.90
15262;DHT22;7733;51.554;13.590;2024-02-16T15:02:41;14.40;99.90
15262;DHT22;7733;51.554;13.590;2024-02-16T15:05:08;14.40;99.90
15262;DHT22;7733;51.554;13.590;2024-02-16T15:07:34;14.30;99.90
15262;DHT22;7733;51.554;13.590;2024-02-16T15:10:01;14.30;99.90
15262;DHT22;7733;51.554;13.590;2024-02-16T15:12:28;14.30;99.90
15262;DHT22;7733;51.554;13.590;2024-02-16T15:14:53;14.20;99.90
15262;DHT22;7733;51.554;13.590;2024-02-16T15:17:20;14.20;99.90
15262;DHT22;7733;51.554;13.590;2024-02-16T15:19:46;14.20;99.90
15262;DHT22;7733;51.554;13.590;2024-02-16T15:22:11;14.10;99.90
15262;DHT22;7733;51.554;13.590;2024-02-16T15:24:37;14.10;99.90
15262;DHT22;7733;51.554;13.590;2024-02-16T15:27:03;14.10;99.90
15262;DHT22;7733;51.554;13.590;2024-02-16T15:29:30;14.10;99.90
15262;DHT22;7733;51.554;13.590;2024-02-16T15:31:57;14.00;99.90
15262;DHT22;7733;51.554;13.590;2024-02-16T15:34:26;14.00;99.90
15262;DHT22;7733;51.554;13.590;2024-02-16T15:36:51;14.00;99.90
15262;DHT22;7733;51.554;13.590;2024-02-16T15:39:17;14.00;99.90